Time;durP1;ratioP1;P1;durP2;ratioP2;P2;SDS_P1;SDS_P2;PMS_P1;PMS_P2;Temp;Humidity;BMP_temperature;BMP_pressure;BME280_temperature;BME280_humidity;BME280_pressure;Samples;Min_cycle;Max_cycle;Signal;HPM_P1;HPM_P2
2023/03/10 00:01:26;;;;;;;0.50;0.40;;;;;;;9.00;66.27;93740.59;4327158;32;20208;-52
2023/03/10 00:03:56;;;;;;;0.50;0.50;;;;;;;8.95;66.41;93746.84;4304954;32;20294;-52
2023/03/10 00:06:24;;;;;;;0.00;0.00;;;;;;;8.93;65.17;93741.13;4306025;32;20317;-49
2023/03/10 00:09:03;;;;;;;0.20;0.20;;;;;;;9.04;65.32;93738.09;4349135;32;20352;-54
2023/03/10 00:11:28;;;;;;;6.30;1.20;;;;;;;9.08;64.56;93726.53;4358419;32;20201;-51
2023/03/10 00:13:54;;;;;;;0.20;0.20;;;;;;;9.08;64.22;93725.75;4318819;32;20387;-53
2023/03/10 00:16:25;;;;;;;3.60;0.73;;;;;;;9.06;64.84;93720.03;4331728;32;20212;-54
2023/03/10 00:18:51;;;;;;;1.90;0.60;;;;;;;9.07;64.60;93713.63;4284776;32;20340;-51
2023/03/10 00:21:28;;;;;;;0.37;0.27;;;;;;;9.13;64.09;93715.00;4341936;32;20357;-53
2023/03/10 00:23:58;;;;;;;0.00;0.00;;;;;;;9.18;63.44;93704.97;4331968;32;20297;-53
2023/03/10 00:26:26;;;;;;;5.97;0.50;;;;;;;9.23;62.96;93694.19;4333028;32;20289;-51
2023/03/10 00:28:56;;;;;;;0.10;0.10;;;;;;;9.24;62.80;93692.31;4344777;32;20197;-53
2023/03/10 00:31:27;;;;;;;2.37;0.77;;;;;;;9.16;63.58;93675.41;4339316;32;20329;-48
2023/03/10 00:33:59;;;;;;;0.43;0.20;;;;;;;9.19;63.00;93684.59;4337674;32;20344;-53
2023/03/10 00:36:28;;;;;;;0.40;0.40;;;;;;;9.09;63.89;93680.47;4327390;32;20331;-53
2023/03/10 00:38:54;;;;;;;0.37;0.37;;;;;;;9.15;63.53;93678.38;4285710;33;20377;-50
2023/03/10 00:41:24;;;;;;;0.20;0.20;;;;;;;9.31;62.95;93682.00;4320514;32;20351;-53
2023/03/10 00:43:54;;;;;;;0.20;0.20;;;;;;;9.31;61.94;93676.72;4320961;32;20345;-53
2023/03/10 00:46:20;;;;;;;0.33;0.30;;;;;;;9.22;62.27;93668.84;4319218;32;20376;-54
2023/03/10 00:48:50;;;;;;;0.20;0.20;;;;;;;9.44;61.49;93675.63;4328329;32;20329;-54
2023/03/10 00:51:17;;;;;;;0.00;0.00;;;;;;;9.30;62.04;93667.22;4333638;32;20375;-53
2023/03/10 00:53:51;;;;;;;0.10;0.10;;;;;;;9.20;62.22;93657.81;4325660;32;20248;-55
2023/03/10 00:56:22;;;;;;;1.80;0.60;;;;;;;9.28;61.83;93661.47;4307893;32;20317;-53
2023/03/10 00:58:59;;;;;;;0.30;0.30;;;;;;;9.09;62.20;93663.84;4329356;32;20332;-50
2023/03/10 01:01:45;;;;;;;0.63;0.30;;;;;;;9.10;62.79;93649.50;4289875;32;20233;-51
2023/03/10 01:04:14;;;;;;;5.43;0.83;;;;;;;9.18;62.32;93640.72;4320891;32;20401;-53
2023/03/10 01:06:43;;;;;;;0.20;0.20;;;;;;;9.11;62.23;93637.84;4333377;32;20382;-50
2023/03/10 01:09:08;;;;;;;0.20;0.20;;;;;;;9.13;62.32;93628.47;4311782;32;20352;-51
2023/03/10 01:11:36;;;;;;;0.20;0.20;;;;;;;8.94;62.98;93628.16;4333350;32;20294;-52
2023/03/10 01:14:07;;;;;;;0.03;0.03;;;;;;;8.95;62.68;93619.91;4287186;33;20260;-53
2023/03/10 01:16:34;;;;;;;0.60;0.60;;;;;;;8.98;62.87;93615.06;4275957;32;20299;-54
2023/03/10 01:18:59;;;;;;;0.00;0.00;;;;;;;9.13;62.18;93614.47;4262068;32;20295;-52
2023/03/10 01:21:29;;;;;;;0.30;0.30;;;;;;;9.01;62.23;93606.47;4317708;32;20289;-52
2023/03/10 01:23:56;;;;;;;0.30;0.30;;;;;;;9.10;62.06;93601.91;4330730;32;20251;-54
2023/03/10 01:26:24;;;;;;;0.20;0.20;;;;;;;9.15;62.03;93599.03;4329492;32;20329;-52
2023/03/10 01:28:50;;;;;;;0.50;0.50;;;;;;;8.93;62.15;93592.25;4325700;32;20321;-53
2023/03/10 01:31:18;;;;;;;0.30;0.30;;;;;;;8.92;62.20;93585.41;4304977;32;20243;-52
2023/03/10 01:33:45;;;;;;;0.00;0.00;;;;;;;9.05;61.69;93588.88;4327839;32;20351;-55
2023/03/10 01:36:14;;;;;;;0.13;0.13;;;;;;;8.93;61.79;93579.03;4311582;32;20459;-52
2023/03/10 01:38:43;;;;;;;0.13;0.13;;;;;;;8.81;62.20;93574.47;4315824;32;20368;-53
2023/03/10 01:41:11;;;;;;;0.30;0.30;;;;;;;8.90;61.88;93575.16;4328762;32;20363;-53
2023/03/10 01:43:41;;;;;;;0.43;0.43;;;;;;;8.98;61.66;93562.16;4313313;32;20190;-54
2023/03/10 01:46:32;;;;;;;0.00;0.00;;;;;;;8.87;61.58;93557.31;4284276;32;20336;-56
2023/03/10 01:49:16;;;;;;;1.60;0.60;;;;;;;8.80;61.84;93551.75;4321973;32;20414;-52
2023/03/10 01:51:50;;;;;;;0.00;0.00;;;;;;;8.66;62.51;93548.62;4295510;32;20329;-51
2023/03/10 01:54:27;;;;;;;0.00;0.00;;;;;;;8.52;62.79;93534.94;4320486;32;20341;-55
2023/03/10 01:56:54;;;;;;;0.47;0.47;;;;;;;8.57;62.79;93537.34;4314268;32;20285;-53
2023/03/10 01:59:22;;;;;;;0.30;0.30;;;;;;;8.61;63.25;93527.69;4341252;32;20324;-51
2023/03/10 02:01:51;;;;;;;0.20;0.20;;;;;;;8.56;62.99;93531.28;4312744;32;20338;-50
2023/03/10 02:04:49;;;;;;;0.10;0.10;;;;;;;8.59;63.07;93521.94;4319027;32;20278;-52
2023/03/10 02:07:22;;;;;;;0.00;0.00;;;;;;;8.54;63.41;93511.56;4318186;32;20385;-51
2023/03/10 02:09:53;;;;;;;0.23;0.23;;;;;;;8.45;63.92;93500.31;4340673;32;20284;-53
2023/03/10 02:12:20;;;;;;;0.40;0.40;;;;;;;8.25;64.13;93500.00;4334380;32;20323;-51
2023/03/10 02:14:47;;;;;;;0.10;0.10;;;;;;;8.08;65.29;93508.03;4294843;32;20361;-53
2023/03/10 02:17:17;;;;;;;0.23;0.23;;;;;;;7.81;66.41;93493.47;4314698;32;20336;-51
2023/03/10 02:20:34;;;;;;;0.10;0.10;;;;;;;7.69;67.30;93488.09;4338588;32;20358;-51
2023/03/10 02:23:01;;;;;;;1.13;0.40;;;;;;;7.80;66.79;93483.22;4278894;33;20511;-50
2023/03/10 02:25:48;;;;;;;0.20;0.20;;;;;;;7.88;66.64;93488.47;4320815;32;21427;-52
2023/03/10 02:28:14;;;;;;;0.20;0.20;;;;;;;7.91;66.53;93479.09;4332934;32;20309;-52
2023/03/10 02:30:44;;;;;;;0.17;0.17;;;;;;;7.58;67.27;93482.44;4330685;32;20315;-55
2023/03/10 02:33:20;;;;;;;0.30;0.30;;;;;;;7.64;66.99;93474.34;4330407;32;20293;-53
2023/03/10 02:35:49;;;;;;;4.33;0.40;;;;;;;7.57;67.44;93472.97;4324605;32;20285;-52
2023/03/10 02:38:19;;;;;;;0.13;0.13;;;;;;;7.71;67.01;93467.44;4342314;32;20300;-53
2023/03/10 02:40:49;;;;;;;0.10;0.10;;;;;;;7.72;66.87;93455.03;4338329;32;20288;-51
2023/03/10 02:43:28;;;;;;;0.20;0.20;;;;;;;7.55;67.47;93456.69;4309217;32;20328;-52
2023/03/10 02:46:07;;;;;;;0.33;0.33;;;;;;;7.28;68.51;93449.22;4308057;32;20296;-52
2023/03/10 02:48:41;;;;;;;0.73;0.37;;;;;;;6.97;70.19;93449.53;4350187;32;20337;-53
2023/03/10 02:51:15;;;;;;;0.23;0.17;;;;;;;6.85;70.33;93439.66;4345442;32;20324;-51
2023/03/10 02:53:43;;;;;;;0.10;0.10;;;;;;;6.84;70.44;93440.75;4338495;32;20291;-51
2023/03/10 02:56:08;;;;;;;0.03;0.03;;;;;;;6.81;70.67;93430.84;4320747;32;20313;-51
2023/03/10 02:58:36;;;;;;;2.37;0.63;;;;;;;6.86;70.43;93435.91;4350943;32;20290;-51
2023/03/10 03:01:06;;;;;;;0.20;0.20;;;;;;;6.84;70.45;93424.94;4320903;32;20333;-52
2023/03/10 03:03:33;;;;;;;0.10;0.10;;;;;;;6.77;70.35;93422.03;4324016;32;20341;-51
2023/03/10 03:05:58;;;;;;;0.77;0.40;;;;;;;6.71;70.73;93425.91;4326049;32;20278;-51
2023/03/10 03:08:25;;;;;;;0.20;0.20;;;;;;;6.72;70.90;93419.56;4357734;32;20293;-53
2023/03/10 03:10:52;;;;;;;0.67;0.47;;;;;;;6.70;70.36;93421.72;4354528;32;20253;-51
2023/03/10 03:13:22;;;;;;;0.20;0.20;;;;;;;6.78;70.05;93414.88;4304450;33;20295;-51
2023/03/10 03:15:49;;;;;;;0.20;0.20;;;;;;;6.83;70.20;93423.41;4329985;32;20286;-52
2023/03/10 03:18:16;;;;;;;0.00;0.00;;;;;;;6.94;69.70;93410.63;4323970;32;20343;-50
2023/03/10 03:20:42;;;;;;;0.17;0.17;;;;;;;7.08;69.25;93416.44;4307299;32;20290;-51
2023/03/10 03:23:10;;;;;;;3.30;0.40;;;;;;;7.16;68.57;93406.97;4322852;32;20286;-52
2023/03/10 03:25:41;;;;;;;0.00;0.00;;;;;;;7.03;68.67;93408.75;4324275;32;20321;-51
2023/03/10 03:28:08;;;;;;;0.00;0.00;;;;;;;6.81;68.72;93409.75;4286403;33;20341;-57
2023/03/10 03:30:36;;;;;;;0.00;0.00;;;;;;;6.76;69.01;93406.53;4341316;32;20303;-53
2023/03/10 03:33:04;;;;;;;0.30;0.23;;;;;;;7.08;68.04;93410.41;4329238;32;20321;-50
2023/03/10 03:35:32;;;;;;;0.27;0.27;;;;;;;7.34;67.23;93394.44;4320057;32;20381;-51
2023/03/10 03:37:58;;;;;;;0.10;0.10;;;;;;;7.26;66.84;93401.31;4305414;32;20346;-52
2023/03/10 03:40:27;;;;;;;0.40;0.40;;;;;;;7.32;66.79;93423.75;4320103;32;20327;-52
2023/03/10 03:42:54;;;;;;;0.10;0.10;;;;;;;7.25;66.87;93426.16;4344354;32;20228;-54
2023/03/10 03:45:32;;;;;;;0.00;0.00;;;;;;;7.31;67.07;93418.81;4343894;32;20327;-52
2023/03/10 03:47:59;;;;;;;0.33;0.33;;;;;;;7.44;66.21;93415.19;4328154;32;20436;-51
2023/03/10 03:50:26;;;;;;;0.10;0.10;;;;;;;7.61;66.22;93419.56;4346014;32;20332;-48
2023/03/10 03:52:53;;;;;;;0.00;0.00;;;;;;;7.62;65.87;93421.09;4330260;32;20392;-51
2023/03/10 03:55:20;;;;;;;0.00;0.00;;;;;;;7.73;65.66;93430.19;4335392;32;20363;-52
2023/03/10 03:57:48;;;;;;;0.20;0.20;;;;;;;7.70;66.40;93430.81;4342640;32;20346;-50
2023/03/10 04:00:21;;;;;;;0.20;0.20;;;;;;;7.76;65.91;93432.94;4345398;32;20277;-52
2023/03/10 04:02:47;;;;;;;0.00;0.00;;;;;;;7.74;65.60;93434.34;4324725;32;20324;-52
2023/03/10 04:05:14;;;;;;;0.20;0.20;;;;;;;7.88;65.40;93456.78;4325678;32;20337;-50
2023/03/10 04:07:42;;;;;;;0.10;0.10;;;;;;;7.98;64.93;93462.75;4318435;32;20334;-54
2023/03/10 04:10:10;;;;;;;0.00;0.00;;;;;;;8.03;65.01;93496.91;4336224;32;20339;-50
2023/03/10 04:12:35;;;;;;;0.37;0.37;;;;;;;7.99;65.84;93512.59;4334607;32;20278;-52
2023/03/10 04:15:03;;;;;;;0.10;0.10;;;;;;;7.84;66.43;93521.09;4346626;32;20305;-53
2023/03/10 04:17:31;;;;;;;1.20;0.27;;;;;;;7.91;65.93;93516.84;4269381;33;20328;-52
2023/03/10 04:20:00;;;;;;;0.20;0.20;;;;;;;7.74;67.05;93511.66;4310642;32;23572;-53
2023/03/10 04:22:28;;;;;;;0.20;0.20;;;;;;;7.71;67.39;93506.25;4342569;32;20304;-54
2023/03/10 04:24:54;;;;;;;0.10;0.10;;;;;;;7.68;67.41;93512.97;4318405;32;20352;-53
2023/03/10 04:27:19;;;;;;;0.00;0.00;;;;;;;7.81;66.93;93511.16;4335763;32;20292;-52
2023/03/10 04:29:46;;;;;;;0.40;0.40;;;;;;;7.70;67.80;93516.03;4339776;32;20197;-54
2023/03/10 04:32:14;;;;;;;0.20;0.20;;;;;;;7.79;67.15;93508.06;4301440;33;20243;-50
2023/03/10 04:34:41;;;;;;;0.93;0.93;;;;;;;7.84;67.00;93510.53;4317877;32;20286;-51
2023/03/10 04:37:10;;;;;;;0.20;0.20;;;;;;;7.81;66.73;93508.53;4340066;32;20286;-50
2023/03/10 04:39:37;;;;;;;0.50;0.50;;;;;;;7.95;66.83;93501.13;4344409;32;20312;-52
2023/03/10 04:42:05;;;;;;;0.50;0.50;;;;;;;8.04;66.62;93501.84;4332117;32;20270;-51
2023/03/10 04:44:35;;;;;;;0.37;0.33;;;;;;;8.10;66.57;93497.94;4314671;32;20283;-52
2023/03/10 04:47:00;;;;;;;0.00;0.00;;;;;;;8.15;66.33;93500.37;4324477;32;20311;-52
2023/03/10 04:49:27;;;;;;;0.37;0.37;;;;;;;8.26;65.95;93506.81;4333596;32;20289;-51
2023/03/10 04:51:54;;;;;;;0.00;0.00;;;;;;;8.26;65.41;93512.09;4327054;32;20236;-51
2023/03/10 04:54:20;;;;;;;0.10;0.10;;;;;;;8.37;66.00;93507.22;4303314;33;20287;-51
2023/03/10 04:56:48;;;;;;;0.13;0.13;;;;;;;8.49;65.61;93503.88;4345416;32;20277;-54
2023/03/10 04:59:16;;;;;;;0.20;0.20;;;;;;;8.55;65.99;93498.03;4343100;32;20289;-54
2023/03/10 05:01:43;;;;;;;0.40;0.40;;;;;;;8.59;66.60;93495.53;4324441;32;20340;-50
2023/03/10 05:04:09;;;;;;;1.83;0.37;;;;;;;8.72;67.31;93502.41;4342943;32;20329;-48
2023/03/10 05:06:37;;;;;;;0.30;0.30;;;;;;;8.84;66.59;93499.00;4345438;32;20300;-49
2023/03/10 05:09:03;;;;;;;0.30;0.30;;;;;;;8.89;66.89;93491.66;4330154;32;20277;-52
2023/03/10 05:11:31;;;;;;;0.20;0.20;;;;;;;8.97;67.27;93492.63;4324117;32;20285;-53
2023/03/10 05:13:57;;;;;;;6.20;0.70;;;;;;;9.09;67.78;93499.84;4333790;32;20311;-54
2023/03/10 05:16:24;;;;;;;2.43;0.47;;;;;;;9.13;68.84;93500.72;4341137;32;20324;-54
2023/03/10 05:18:49;;;;;;;0.10;0.10;;;;;;;9.29;68.64;93498.97;4296454;32;20313;-50
2023/03/10 05:21:15;;;;;;;1.10;0.60;;;;;;;9.31;69.25;93502.06;4306924;32;20299;-53
2023/03/10 05:23:46;;;;;;;0.40;0.40;;;;;;;9.37;69.65;93500.72;4319256;32;20201;-54
2023/03/10 05:26:15;;;;;;;0.03;0.03;;;;;;;9.25;70.55;93495.44;4324726;32;20304;-53
2023/03/10 05:28:42;;;;;;;0.63;0.20;;;;;;;9.44;70.81;93500.97;4337968;32;20297;-53
2023/03/10 05:31:13;;;;;;;0.17;0.17;;;;;;;9.47;70.78;93492.37;4305604;32;20337;-50
2023/03/10 05:33:38;;;;;;;0.43;0.43;;;;;;;9.46;71.08;93504.06;4337659;32;20301;-54
2023/03/10 05:36:08;;;;;;;0.20;0.20;;;;;;;9.45;71.50;93502.50;4282321;33;20323;-55
2023/03/10 05:38:35;;;;;;;0.10;0.10;;;;;;;9.59;71.13;93512.75;4279168;33;20198;-52
2023/03/10 05:41:05;;;;;;;0.10;0.00;;;;;;;9.55;72.14;93502.09;4338407;32;20375;-55
2023/03/10 05:43:30;;;;;;;0.10;0.10;;;;;;;9.58;71.90;93501.41;4323454;32;20293;-54
2023/03/10 05:45:58;;;;;;;0.10;0.10;;;;;;;9.43;72.26;93501.28;4332921;32;20308;-52
2023/03/10 05:48:25;;;;;;;0.17;0.17;;;;;;;9.49;72.93;93503.41;4340682;32;20256;-53
2023/03/10 05:51:11;;;;;;;0.00;0.00;;;;;;;9.59;72.60;93508.25;4311910;32;20289;-54
2023/03/10 05:53:42;;;;;;;0.10;0.10;;;;;;;9.54;73.06;93505.06;4354805;32;20285;-54
2023/03/10 05:56:16;;;;;;;0.27;0.27;;;;;;;9.57;72.88;93493.78;4330986;32;20277;-55
2023/03/10 05:58:42;;;;;;;2.03;0.40;;;;;;;9.51;73.50;93495.91;4335048;32;20335;-52
2023/03/10 06:01:10;;;;;;;0.20;0.20;;;;;;;9.55;73.71;93494.16;4311124;32;20313;-51
2023/03/10 06:03:36;;;;;;;0.13;0.13;;;;;;;9.53;73.97;93485.00;4315880;32;20290;-53
2023/03/10 06:06:09;;;;;;;0.27;0.27;;;;;;;9.53;74.27;93477.06;4327014;32;20278;-52
2023/03/10 06:08:35;;;;;;;0.10;0.10;;;;;;;9.55;74.14;93462.37;4324515;32;20290;-52
2023/03/10 06:11:00;;;;;;;0.30;0.30;;;;;;;9.48;74.83;93464.03;4308472;32;20277;-51
2023/03/10 06:13:27;;;;;;;0.10;0.10;;;;;;;9.50;74.75;93472.41;4341967;32;20212;-53
2023/03/10 06:15:58;;;;;;;1.67;0.70;;;;;;;9.56;74.92;93477.13;4331906;32;20228;-53
2023/03/10 06:18:25;;;;;;;0.27;0.27;;;;;;;9.57;74.99;93468.09;4340505;32;20288;-51
2023/03/10 06:20:52;;;;;;;1.23;0.50;;;;;;;9.52;75.10;93465.69;4309416;32;20201;-49
2023/03/10 06:23:18;;;;;;;0.30;0.30;;;;;;;9.62;74.88;93462.56;4310128;32;20312;-54
2023/03/10 06:25:57;;;;;;;0.10;0.10;;;;;;;9.67;74.90;93464.22;4309811;33;20249;-52
2023/03/10 06:28:24;;;;;;;0.40;0.37;;;;;;;9.56;75.91;93458.59;4314205;32;20255;-55
2023/03/10 06:30:59;;;;;;;0.50;0.50;;;;;;;9.58;76.22;93459.03;4333142;32;20286;-52
2023/03/10 06:33:29;;;;;;;0.20;0.20;;;;;;;9.51;76.85;93461.50;4344748;32;20222;-52
2023/03/10 06:35:57;;;;;;;0.20;0.10;;;;;;;9.70;76.41;93444.28;4341216;32;20196;-55
2023/03/10 06:38:24;;;;;;;0.80;0.37;;;;;;;9.71;76.53;93438.63;4324504;32;20325;-51
2023/03/10 06:40:53;;;;;;;0.70;0.70;;;;;;;9.75;76.36;93442.16;4336741;32;20181;-53
2023/03/10 06:43:20;;;;;;;0.40;0.40;;;;;;;9.72;76.85;93434.12;4340961;32;20200;-55
2023/03/10 06:45:49;;;;;;;0.27;0.27;;;;;;;9.84;77.10;93418.19;4330324;32;20286;-52
2023/03/10 06:48:16;;;;;;;0.30;0.30;;;;;;;9.87;77.09;93412.22;4318284;32;20210;-52
2023/03/10 06:50:44;;;;;;;0.07;0.07;;;;;;;9.87;77.70;93412.22;4345228;32;20265;-51
2023/03/10 06:53:11;;;;;;;0.30;0.17;;;;;;;9.67;79.13;93403.34;4319161;32;20241;-52
2023/03/10 06:55:39;;;;;;;0.30;0.30;;;;;;;9.66;78.88;93433.56;4341968;32;20243;-53
2023/03/10 06:58:06;;;;;;;0.20;0.20;;;;;;;9.72;78.72;93436.75;4338975;32;20253;-51
2023/03/10 07:00:34;;;;;;;0.50;0.50;;;;;;;9.74;78.96;93423.97;4349778;32;20211;-52
2023/03/10 07:03:01;;;;;;;0.20;0.20;;;;;;;9.64;79.15;93422.53;4313315;32;20241;-51
2023/03/10 07:05:29;;;;;;;2.10;1.03;;;;;;;9.69;78.90;93397.72;4304087;32;20202;-54
2023/03/10 07:07:55;;;;;;;0.30;0.30;;;;;;;9.71;78.66;93387.56;4312329;32;20193;-51
2023/03/10 07:10:23;;;;;;;1.63;0.33;;;;;;;9.73;78.18;93380.06;4325971;32;20227;-52
2023/03/10 07:12:53;;;;;;;0.10;0.10;;;;;;;9.78;77.91;93383.22;4340014;32;20215;-49
2023/03/10 07:15:21;;;;;;;0.10;0.10;;;;;;;9.77;77.80;93375.63;4338778;32;20239;-49
2023/03/10 07:17:48;;;;;;;1.43;0.40;;;;;;;9.74;78.12;93371.78;4340526;32;20213;-51
2023/03/10 07:20:16;;;;;;;0.60;0.60;;;;;;;9.82;78.08;93375.38;4310985;32;20368;-51
2023/03/10 07:22:48;;;;;;;0.10;0.10;;;;;;;9.78;78.04;93377.94;4331159;32;20193;-52
2023/03/10 07:25:30;;;;;;;0.93;0.60;;;;;;;9.78;77.82;93377.94;4326101;32;20228;-53
2023/03/10 07:28:04;;;;;;;5.50;0.80;;;;;;;10.00;76.92;93388.00;4338907;32;20197;-54
2023/03/10 07:30:40;;;;;;;1.03;1.03;;;;;;;9.85;77.72;93388.72;4335208;32;20305;-57
2023/03/10 07:33:08;;;;;;;0.60;0.60;;;;;;;11.17;89.38;93397.44;4347450;32;20244;-57
2023/03/10 07:35:35;;;;;;;1.70;0.50;;;;;;;12.05;84.24;93395.97;4325306;32;20219;-56
2023/03/10 07:38:03;;;;;;;0.53;0.53;;;;;;;12.66;78.49;93392.56;4289569;32;20260;-57
2023/03/10 07:40:28;;;;;;;0.60;0.60;;;;;;;13.14;72.51;93390.28;4305431;32;20331;-56
2023/03/10 07:42:57;;;;;;;0.20;0.20;;;;;;;13.49;69.29;93398.09;4329069;32;20211;-56
2023/03/10 07:45:25;;;;;;;0.43;0.20;;;;;;;13.71;66.54;93383.94;4332594;32;20267;-57
2023/03/10 07:47:52;;;;;;;0.03;0.03;;;;;;;13.90;65.21;93383.06;4302105;32;20213;-55
2023/03/10 07:50:20;;;;;;;0.00;0.00;;;;;;;13.89;64.19;93379.63;4264756;32;20193;-53
2023/03/10 07:52:47;;;;;;;0.20;0.20;;;;;;;13.95;63.71;93386.16;4327262;32;20193;-57
2023/03/10 07:55:13;;;;;;;0.53;0.53;;;;;;;14.00;62.86;93390.41;4273962;32;20204;-56
2023/03/10 07:57:39;;;;;;;1.50;0.70;;;;;;;14.07;62.05;93385.94;4277895;32;20225;-56
2023/03/10 08:00:07;;;;;;;0.90;0.43;;;;;;;14.19;61.63;93382.25;4243852;32;20195;-55
2023/03/10 08:02:33;;;;;;;0.27;0.27;;;;;;;13.72;62.38;93372.13;4272999;33;20202;-48
2023/03/10 08:04:58;;;;;;;0.90;0.60;;;;;;;13.25;61.48;93380.63;4280011;33;20269;-51
2023/03/10 08:07:29;;;;;;;0.23;0.23;;;;;;;12.83;63.05;93378.00;4317741;32;20193;-54
2023/03/10 08:09:56;;;;;;;0.30;0.30;;;;;;;12.28;64.41;93377.41;4314976;32;20189;-53
2023/03/10 08:12:24;;;;;;;0.37;0.37;;;;;;;12.11;65.82;93378.59;4331415;32;20219;-52
2023/03/10 08:14:56;;;;;;;0.67;0.27;;;;;;;12.11;65.54;93375.94;4336598;32;20266;-49
2023/03/10 08:17:29;;;;;;;1.40;0.50;;;;;;;11.88;66.88;93378.53;4345777;32;20228;-50
2023/03/10 08:19:57;;;;;;;0.30;0.30;;;;;;;11.80;67.12;93365.47;4329954;32;20232;-50
2023/03/10 08:22:26;;;;;;;0.60;0.60;;;;;;;11.68;67.55;93353.81;4284881;32;20220;-50
2023/03/10 08:24:52;;;;;;;0.40;0.40;;;;;;;11.58;68.35;93359.69;4333911;27;20192;-57
2023/03/10 08:27:17;;;;;;;0.30;0.30;;;;;;;11.58;67.07;93356.25;4383286;32;20227;-57
2023/03/10 08:29:43;;;;;;;0.20;0.20;;;;;;;11.75;67.68;93347.09;4385864;32;20216;-56
2023/03/10 08:32:08;;;;;;;0.23;0.23;;;;;;;11.71;67.76;93342.50;4375379;32;20185;-59
2023/03/10 08:34:34;;;;;;;0.40;0.40;;;;;;;11.85;67.20;93334.06;4389205;32;20184;-60
2023/03/10 08:37:00;;;;;;;0.30;0.30;;;;;;;11.85;67.13;93331.41;4374342;32;20196;-58
2023/03/10 08:39:28;;;;;;;0.30;0.30;;;;;;;12.11;67.30;93335.31;4371948;32;20238;-52
2023/03/10 08:41:55;;;;;;;0.77;0.50;;;;;;;12.09;66.63;93321.59;4384411;32;20185;-60
2023/03/10 08:44:21;;;;;;;3.00;0.67;;;;;;;12.14;66.41;93331.94;4385374;32;20185;-57
2023/03/10 08:46:48;;;;;;;0.10;0.10;;;;;;;12.22;66.33;93320.34;4375220;32;20271;-58
2023/03/10 08:49:15;;;;;;;0.30;0.30;;;;;;;12.35;65.43;93325.13;4386559;32;20224;-58
2023/03/10 08:51:42;;;;;;;1.90;0.77;;;;;;;12.47;65.28;93315.47;4367389;32;20226;-60
2023/03/10 08:54:09;;;;;;;3.23;0.80;;;;;;;12.48;65.07;93315.09;4377694;32;20211;-58
2023/03/10 08:56:35;;;;;;;1.20;0.57;;;;;;;12.37;65.25;93324.78;4389583;32;20185;-58
2023/03/10 08:59:00;;;;;;;0.60;0.60;;;;;;;12.50;64.96;93322.72;4389638;32;20191;-59
2023/03/10 09:01:31;;;;;;;0.97;0.53;;;;;;;12.61;64.16;93324.44;4373871;32;20184;-57
2023/03/10 09:03:58;;;;;;;0.20;0.20;;;;;;;12.36;65.18;93329.31;4387015;32;20188;-59
2023/03/10 09:06:24;;;;;;;2.00;0.70;;;;;;;12.43;65.32;93328.69;4374960;32;20184;-50
2023/03/10 09:08:50;;;;;;;0.07;0.07;;;;;;;12.42;65.20;93321.06;4390144;32;20243;-53
2023/03/10 09:11:40;;;;;;;0.43;0.43;;;;;;;12.37;64.73;93335.41;4379468;32;20203;-53
2023/03/10 09:14:06;;;;;;;0.30;0.30;;;;;;;12.55;64.21;93333.06;4388667;32;20198;-52
2023/03/10 09:16:32;;;;;;;0.33;0.30;;;;;;;12.54;63.92;93328.88;4373611;32;20188;-58
2023/03/10 09:18:59;;;;;;;0.20;0.20;;;;;;;12.61;63.87;93337.75;4389146;32;20195;-56
2023/03/10 09:21:26;;;;;;;0.70;0.50;;;;;;;12.61;63.92;93348.38;4377537;32;20208;-51
2023/03/10 09:23:52;;;;;;;0.50;0.50;;;;;;;12.64;63.88;93346.91;4391616;32;20226;-52
2023/03/10 09:26:18;;;;;;;4.47;0.70;;;;;;;12.64;63.54;93350.34;4389313;32;20185;-55
2023/03/10 09:28:44;;;;;;;1.10;0.30;;;;;;;12.73;62.91;93347.44;4377216;32;20200;-58
2023/03/10 09:31:16;;;;;;;0.10;0.10;;;;;;;12.95;62.48;93338.66;4376406;32;20329;-57
2023/03/10 09:33:42;;;;;;;0.90;0.60;;;;;;;12.93;62.46;93337.47;4354112;32;20204;-56
2023/03/10 09:36:08;;;;;;;0.23;0.23;;;;;;;13.08;61.40;93334.72;4390396;32;20211;-56
2023/03/10 09:38:34;;;;;;;0.30;0.30;;;;;;;13.24;59.92;93336.47;4387618;32;20192;-57
2023/03/10 09:41:30;;;;;;;0.13;0.13;;;;;;;13.31;59.43;93344.53;4370788;32;20193;-54
2023/03/10 09:44:17;;;;;;;0.37;0.37;;;;;;;13.31;59.22;93353.31;4375565;32;20184;-56
2023/03/10 09:47:08;;;;;;;0.27;0.27;;;;;;;13.38;58.28;93348.09;4389279;32;20210;-55
2023/03/10 09:49:54;;;;;;;0.27;0.27;;;;;;;13.55;60.25;93352.13;4385456;32;20301;-58
2023/03/10 09:52:28;;;;;;;2.67;0.50;;;;;;;13.73;56.67;93339.03;4384713;32;20200;-55
2023/03/10 09:54:56;;;;;;;0.33;0.33;;;;;;;13.65;54.70;93340.84;4374539;32;20197;-58
2023/03/10 09:57:22;;;;;;;6.20;0.83;;;;;;;13.60;53.80;93356.38;4377282;32;20196;-55
2023/03/10 09:59:50;;;;;;;0.57;0.57;;;;;;;13.34;54.92;93354.50;4377032;32;20194;-59
2023/03/10 10:02:34;;;;;;;0.27;0.27;;;;;;;13.34;55.49;93359.81;4382649;32;20197;-59
2023/03/10 10:05:05;;;;;;;0.30;0.30;;;;;;;13.45;56.03;93367.97;4373348;32;20304;-54
2023/03/10 10:07:44;;;;;;;0.43;0.43;;;;;;;13.49;54.24;93376.78;4390393;32;20289;-52
2023/03/10 10:10:18;;;;;;;0.70;0.53;;;;;;;13.58;55.30;93385.28;4361882;32;20207;-57
2023/03/10 10:12:48;;;;;;;1.67;0.97;;;;;;;13.41;53.68;93382.00;4385009;32;20233;-58
2023/03/10 10:15:17;;;;;;;0.83;0.40;;;;;;;13.33;53.82;93403.56;4376325;32;20229;-52
2023/03/10 10:18:11;;;;;;;0.13;0.13;;;;;;;13.15;55.45;93399.81;4387877;32;20263;-54
2023/03/10 10:20:46;;;;;;;0.00;0.00;;;;;;;13.17;56.79;93426.88;4379019;32;20188;-55
2023/03/10 10:23:21;;;;;;;0.00;0.00;;;;;;;12.99;60.14;93427.34;4382494;32;20208;-56
2023/03/10 10:25:46;;;;;;;0.10;0.10;;;;;;;12.71;64.22;93429.50;4373817;32;20210;-57
2023/03/10 10:28:19;;;;;;;0.00;0.00;;;;;;;12.57;65.60;93447.84;4368010;32;20193;-57
2023/03/10 10:30:44;;;;;;;0.83;0.30;;;;;;;12.29;67.32;93467.44;4387328;32;20235;-59
2023/03/10 10:33:13;;;;;;;0.03;0.03;;;;;;;12.18;68.73;93469.13;4385853;32;20327;-54
2023/03/10 10:35:42;;;;;;;0.10;0.10;;;;;;;12.11;68.31;93484.91;4391253;32;20206;-56
2023/03/10 10:38:12;;;;;;;0.63;0.20;;;;;;;11.97;66.13;93477.44;4372294;32;20200;-53
2023/03/10 10:40:49;;;;;;;0.10;0.00;;;;;;;11.71;65.79;93501.09;4374664;32;20193;-55
2023/03/10 10:43:19;;;;;;;0.10;0.10;;;;;;;11.44;67.71;93502.72;4373224;32;20228;-57
2023/03/10 10:45:53;;;;;;;0.10;0.10;;;;;;;11.31;67.34;93503.94;4376655;32;20291;-56
2023/03/10 10:48:45;;;;;;;0.00;0.00;;;;;;;10.84;71.52;93512.59;4390245;32;20184;-54
2023/03/10 10:51:23;;;;;;;0.00;0.00;;;;;;;10.57;74.29;93489.53;4375338;32;20266;-54
2023/03/10 10:53:49;;;;;;;0.00;0.00;;;;;;;10.40;73.72;93471.25;4372829;32;20246;-58
2023/03/10 10:56:16;;;;;;;0.13;0.13;;;;;;;10.38;75.31;93478.78;4381265;32;20227;-57
2023/03/10 10:58:44;;;;;;;0.00;0.00;;;;;;;10.42;75.47;93471.69;4388961;32;20185;-59
2023/03/10 11:01:15;;;;;;;0.00;0.00;;;;;;;10.49;73.91;93464.69;4389809;32;20211;-57
2023/03/10 11:03:46;;;;;;;0.00;0.00;;;;;;;10.57;73.90;93458.50;4387116;32;20258;-56
2023/03/10 11:06:24;;;;;;;0.20;0.20;;;;;;;10.59;73.19;93447.56;4379735;32;20206;-54
2023/03/10 11:08:51;;;;;;;0.00;0.00;;;;;;;10.39;73.83;93438.69;4376382;32;20191;-56
2023/03/10 11:11:34;;;;;;;0.00;0.00;;;;;;;10.56;73.50;93437.63;4389829;32;20197;-57
2023/03/10 11:14:09;;;;;;;0.00;0.00;;;;;;;10.60;73.47;93423.31;4377107;32;20284;-57
2023/03/10 11:16:40;;;;;;;0.17;0.17;;;;;;;10.73;72.12;93425.94;4392295;32;20207;-58
2023/03/10 11:19:11;;;;;;;0.00;0.00;;;;;;;10.77;71.68;93413.53;4391429;32;20189;-56
2023/03/10 11:21:43;;;;;;;0.00;0.00;;;;;;;10.81;72.02;93412.47;4388163;32;20257;-58
2023/03/10 11:24:21;;;;;;;0.13;0.13;;;;;;;10.74;72.05;93409.66;4378331;32;20192;-58
2023/03/10 11:26:58;;;;;;;0.40;0.10;;;;;;;10.79;71.40;93393.50;4376059;32;20180;-57
2023/03/10 11:29:36;;;;;;;0.00;0.00;;;;;;;10.68;70.88;93401.19;4377551;32;20246;-57
2023/03/10 11:32:47;;;;;;;0.00;0.00;;;;;;;10.81;71.13;93388.62;4372573;32;20239;-56
2023/03/10 11:35:45;;;;;;;1.73;0.17;;;;;;;10.87;71.27;93384.59;4355524;32;20234;-54
2023/03/10 11:38:28;;;;;;;0.20;0.20;;;;;;;10.98;69.78;93384.87;4380777;32;20209;-56
2023/03/10 11:41:09;;;;;;;0.40;0.40;;;;;;;10.95;69.42;93378.37;4375668;32;20226;-56
2023/03/10 11:43:53;;;;;;;0.00;0.00;;;;;;;11.01;69.41;93376.97;4374965;32;20200;-56
2023/03/10 11:46:24;;;;;;;0.10;0.10;;;;;;;11.35;69.33;93374.72;4391569;32;20234;-54
2023/03/10 11:49:11;;;;;;;0.10;0.10;;;;;;;11.59;67.52;93366.53;4374470;32;20188;-52
2023/03/10 11:51:57;;;;;;;0.00;0.00;;;;;;;11.70;65.54;93364.84;4392440;32;20189;-55
2023/03/10 11:54:42;;;;;;;0.00;0.00;;;;;;;11.68;64.37;93361.78;4390968;32;20258;-54